<?xml version="1.0" encoding="UTF-8" standalone="no" ?>
<gpx xmlns="http://www.topografix.com/GPX/1/1" xmlns:xsi="http://www.w3.org/2001/XMLSchema-instance" xsi:schemaLocation="http://www.topografix.com/GPX/1/1 http://www.topografix.com/GPX/1/1/gpx.xsd" version="1.1" creator="VisuGPX - https://www.visugpx.com">
  <metadata>
    <name>24 - Saint Martin de Fressingeas sud</name>
    <desc><![CDATA[Cet itinéraire fait partie de la collection de EquiLiberté : www.equiliberte.org
Circuit  NON ACCESSIBLE aux attelages]]></desc>
  </metadata>
  <trk>
    <name><![CDATA[24 - Saint Martin de Fressingeas sud]]></name>
    <trkseg>
      <trkpt lat="45.4424" lon="0.84468">
        <ele>260</ele>
        <time>2016-03-07T22:27:01Z</time>
      </trkpt>
      <trkpt lat="45.44378" lon="0.84468">
        <ele>265</ele>
        <time>2016-03-07T22:25:01Z</time>
      </trkpt>
      <trkpt lat="45.44435" lon="0.84559">
        <ele>269</ele>
        <time>2016-03-07T22:23:01Z</time>
      </trkpt>
      <trkpt lat="45.44499" lon="0.84644">
        <ele>274</ele>
        <time>2016-03-07T22:21:01Z</time>
      </trkpt>
      <trkpt lat="45.44565" lon="0.84709">
        <ele>273</ele>
        <time>2016-03-07T22:19:01Z</time>
      </trkpt>
      <trkpt lat="45.44595" lon="0.84773">
        <ele>272</ele>
        <time>2016-03-07T22:17:01Z</time>
      </trkpt>
      <trkpt lat="45.44628" lon="0.84863">
        <ele>271</ele>
        <time>2016-03-07T22:15:01Z</time>
      </trkpt>
      <trkpt lat="45.44643" lon="0.84953">
        <ele>270</ele>
        <time>2016-03-07T22:13:01Z</time>
      </trkpt>
      <trkpt lat="45.44649" lon="0.85026">
        <ele>271</ele>
        <time>2016-03-07T22:11:01Z</time>
      </trkpt>
      <trkpt lat="45.44649" lon="0.85078">
        <ele>272</ele>
        <time>2016-03-07T22:09:01Z</time>
      </trkpt>
      <trkpt lat="45.44685" lon="0.85155">
        <ele>271</ele>
        <time>2016-03-07T22:07:01Z</time>
      </trkpt>
      <trkpt lat="45.44751" lon="0.85228">
        <ele>268</ele>
        <time>2016-03-07T22:05:01Z</time>
      </trkpt>
      <trkpt lat="45.44809" lon="0.85267">
        <ele>263</ele>
        <time>2016-03-07T22:03:01Z</time>
      </trkpt>
      <trkpt lat="45.44857" lon="0.85275">
        <ele>257</ele>
        <time>2016-03-07T22:01:01Z</time>
      </trkpt>
      <trkpt lat="45.44944" lon="0.85288">
        <ele>240</ele>
        <time>2016-03-07T21:59:01Z</time>
      </trkpt>
      <trkpt lat="45.45016" lon="0.85292">
        <ele>233</ele>
        <time>2016-03-07T21:57:01Z</time>
      </trkpt>
      <trkpt lat="45.45056" lon="0.85301">
        <ele>234</ele>
        <time>2016-03-07T21:55:01Z</time>
      </trkpt>
      <trkpt lat="45.45104" lon="0.85378">
        <ele>225</ele>
        <time>2016-03-07T21:53:01Z</time>
      </trkpt>
      <trkpt lat="45.45107" lon="0.85473">
        <ele>215</ele>
        <time>2016-03-07T21:51:01Z</time>
      </trkpt>
      <trkpt lat="45.4514" lon="0.8561">
        <ele>208</ele>
        <time>2016-03-07T21:49:01Z</time>
      </trkpt>
      <trkpt lat="45.45224" lon="0.85584">
        <ele>210</ele>
        <time>2016-03-07T21:47:01Z</time>
      </trkpt>
      <trkpt lat="45.45239" lon="0.85692">
        <ele>206</ele>
        <time>2016-03-07T21:45:01Z</time>
      </trkpt>
      <trkpt lat="45.45239" lon="0.8579">
        <ele>205</ele>
        <time>2016-03-07T21:43:01Z</time>
      </trkpt>
      <trkpt lat="45.45212" lon="0.8588">
        <ele>200</ele>
        <time>2016-03-07T21:41:01Z</time>
      </trkpt>
      <trkpt lat="45.45203" lon="0.86013">
        <ele>187</ele>
        <time>2016-03-07T21:39:01Z</time>
      </trkpt>
      <trkpt lat="45.45155" lon="0.86125">
        <ele>191</ele>
        <time>2016-03-07T21:37:01Z</time>
      </trkpt>
      <trkpt lat="45.45209" lon="0.86241">
        <ele>208</ele>
        <time>2016-03-07T21:35:01Z</time>
      </trkpt>
      <trkpt lat="45.45266" lon="0.86344">
        <ele>215</ele>
        <time>2016-03-07T21:33:01Z</time>
      </trkpt>
      <trkpt lat="45.45323" lon="0.86387">
        <ele>220</ele>
        <time>2016-03-07T21:31:01Z</time>
      </trkpt>
      <trkpt lat="45.45363" lon="0.86455">
        <ele>222</ele>
        <time>2016-03-07T21:29:01Z</time>
      </trkpt>
      <trkpt lat="45.45393" lon="0.86507">
        <ele>224</ele>
        <time>2016-03-07T21:27:01Z</time>
      </trkpt>
      <trkpt lat="45.45441" lon="0.86623">
        <ele>231</ele>
        <time>2016-03-07T21:25:01Z</time>
      </trkpt>
      <trkpt lat="45.45402" lon="0.86739">
        <ele>240</ele>
        <time>2016-03-07T21:23:01Z</time>
      </trkpt>
      <trkpt lat="45.45369" lon="0.87052">
        <ele>248</ele>
        <time>2016-03-07T21:21:01Z</time>
      </trkpt>
      <trkpt lat="45.45248" lon="0.87056">
        <ele>242</ele>
        <time>2016-03-07T21:19:01Z</time>
      </trkpt>
      <trkpt lat="45.4511" lon="0.86996">
        <ele>241</ele>
        <time>2016-03-07T21:17:01Z</time>
      </trkpt>
      <trkpt lat="45.45028" lon="0.86958">
        <ele>244</ele>
        <time>2016-03-07T21:15:01Z</time>
      </trkpt>
      <trkpt lat="45.4495" lon="0.86859">
        <ele>243</ele>
        <time>2016-03-07T21:13:01Z</time>
      </trkpt>
      <trkpt lat="45.44788" lon="0.86885">
        <ele>234</ele>
        <time>2016-03-07T21:11:01Z</time>
      </trkpt>
      <trkpt lat="45.44703" lon="0.8682">
        <ele>223</ele>
        <time>2016-03-07T21:09:01Z</time>
      </trkpt>
      <trkpt lat="45.44709" lon="0.86975">
        <ele>226</ele>
        <time>2016-03-07T21:07:01Z</time>
      </trkpt>
      <trkpt lat="45.44712" lon="0.87133">
        <ele>226</ele>
        <time>2016-03-07T21:05:01Z</time>
      </trkpt>
      <trkpt lat="45.44691" lon="0.87189">
        <ele>225</ele>
        <time>2016-03-07T21:03:01Z</time>
      </trkpt>
      <trkpt lat="45.44694" lon="0.87442">
        <ele>230</ele>
        <time>2016-03-07T21:01:01Z</time>
      </trkpt>
      <trkpt lat="45.44565" lon="0.87477">
        <ele>226</ele>
        <time>2016-03-07T20:59:01Z</time>
      </trkpt>
      <trkpt lat="45.44411" lon="0.87412">
        <ele>228</ele>
        <time>2016-03-07T20:57:01Z</time>
      </trkpt>
      <trkpt lat="45.44411" lon="0.87408">
        <ele>228</ele>
        <time>2016-03-07T20:57:59Z</time>
      </trkpt>
      <trkpt lat="45.4442" lon="0.87494">
        <ele>229</ele>
        <time>2016-03-07T20:59:59Z</time>
      </trkpt>
      <trkpt lat="45.4442" lon="0.87627">
        <ele>232</ele>
        <time>2016-03-07T21:01:59Z</time>
      </trkpt>
      <trkpt lat="45.44417" lon="0.87679">
        <ele>234</ele>
        <time>2016-03-07T21:03:59Z</time>
      </trkpt>
      <trkpt lat="45.44462" lon="0.87721">
        <ele>238</ele>
        <time>2016-03-07T21:05:59Z</time>
      </trkpt>
      <trkpt lat="45.4448" lon="0.87807">
        <ele>245</ele>
        <time>2016-03-07T21:07:59Z</time>
      </trkpt>
      <trkpt lat="45.4452" lon="0.87884">
        <ele>250</ele>
        <time>2016-03-07T21:09:59Z</time>
      </trkpt>
      <trkpt lat="45.44607" lon="0.87966">
        <ele>257</ele>
        <time>2016-03-07T21:11:59Z</time>
      </trkpt>
      <trkpt lat="45.44604" lon="0.88048">
        <ele>260</ele>
        <time>2016-03-07T21:13:59Z</time>
      </trkpt>
      <trkpt lat="45.44387" lon="0.87957">
        <ele>255</ele>
        <time>2016-03-07T21:15:59Z</time>
      </trkpt>
      <trkpt lat="45.44285" lon="0.87824">
        <ele>248</ele>
        <time>2016-03-07T21:17:59Z</time>
      </trkpt>
      <trkpt lat="45.44231" lon="0.87709">
        <ele>246</ele>
        <time>2016-03-07T21:19:59Z</time>
      </trkpt>
      <trkpt lat="45.44194" lon="0.87576">
        <ele>244</ele>
        <time>2016-03-07T21:21:59Z</time>
      </trkpt>
      <trkpt lat="45.44167" lon="0.87473">
        <ele>248</ele>
        <time>2016-03-07T21:23:59Z</time>
      </trkpt>
      <trkpt lat="45.44047" lon="0.87267">
        <ele>249</ele>
        <time>2016-03-07T21:25:59Z</time>
      </trkpt>
      <trkpt lat="45.43954" lon="0.87116">
        <ele>255</ele>
        <time>2016-03-07T21:27:59Z</time>
      </trkpt>
      <trkpt lat="45.43917" lon="0.87048">
        <ele>259</ele>
        <time>2016-03-07T21:29:59Z</time>
      </trkpt>
      <trkpt lat="45.43746" lon="0.86863">
        <ele>257</ele>
        <time>2016-03-07T21:31:59Z</time>
      </trkpt>
      <trkpt lat="45.43686" lon="0.8682">
        <ele>255</ele>
        <time>2016-03-07T21:33:59Z</time>
      </trkpt>
      <trkpt lat="45.43619" lon="0.86807">
        <ele>255</ele>
        <time>2016-03-07T21:35:59Z</time>
      </trkpt>
      <trkpt lat="45.4349" lon="0.86661">
        <ele>255</ele>
        <time>2016-03-07T21:37:59Z</time>
      </trkpt>
      <trkpt lat="45.43354" lon="0.86232">
        <ele>220</ele>
        <time>2016-03-07T21:39:59Z</time>
      </trkpt>
      <trkpt lat="45.43282" lon="0.86232">
        <ele>209</ele>
        <time>2016-03-07T21:41:59Z</time>
      </trkpt>
      <trkpt lat="45.4327" lon="0.86035">
        <ele>196</ele>
        <time>2016-03-07T21:43:59Z</time>
      </trkpt>
      <trkpt lat="45.43243" lon="0.85958">
        <ele>193</ele>
        <time>2016-03-07T21:45:59Z</time>
      </trkpt>
      <trkpt lat="45.4321" lon="0.85756">
        <ele>190</ele>
        <time>2016-03-07T21:47:59Z</time>
      </trkpt>
      <trkpt lat="45.43156" lon="0.85597">
        <ele>185</ele>
        <time>2016-03-07T21:49:59Z</time>
      </trkpt>
      <trkpt lat="45.43047" lon="0.8543">
        <ele>181</ele>
        <time>2016-03-07T21:51:59Z</time>
      </trkpt>
      <trkpt lat="45.4302" lon="0.85481">
        <ele>184</ele>
        <time>2016-03-07T21:53:59Z</time>
      </trkpt>
      <trkpt lat="45.42987" lon="0.85451">
        <ele>184</ele>
        <time>2016-03-07T21:55:59Z</time>
      </trkpt>
      <trkpt lat="45.42972" lon="0.85482">
        <ele>185</ele>
        <time>2016-03-07T21:57:59Z</time>
      </trkpt>
      <trkpt lat="45.42865" lon="0.85321">
        <ele>172</ele>
        <time>2016-03-07T21:59:59Z</time>
      </trkpt>
      <trkpt lat="45.42842" lon="0.85255">
        <ele>165</ele>
        <time>2016-03-07T22:01:59Z</time>
      </trkpt>
      <trkpt lat="45.42761" lon="0.85242">
        <ele>158</ele>
        <time>2016-03-07T22:03:59Z</time>
      </trkpt>
      <trkpt lat="45.42741" lon="0.85251">
        <ele>159</ele>
        <time>2016-03-07T22:05:59Z</time>
      </trkpt>
      <trkpt lat="45.42719" lon="0.8518">
        <ele>158</ele>
        <time>2016-03-07T22:07:59Z</time>
      </trkpt>
      <trkpt lat="45.42705" lon="0.85139">
        <ele>158</ele>
        <time>2016-03-07T22:09:59Z</time>
      </trkpt>
      <trkpt lat="45.42702" lon="0.85053">
        <ele>157</ele>
        <time>2016-03-07T22:11:59Z</time>
      </trkpt>
      <trkpt lat="45.42702" lon="0.8498">
        <ele>156</ele>
        <time>2016-03-07T22:13:59Z</time>
      </trkpt>
      <trkpt lat="45.42707" lon="0.84922">
        <ele>156</ele>
        <time>2016-03-07T22:15:59Z</time>
      </trkpt>
      <trkpt lat="45.42707" lon="0.84866">
        <ele>156</ele>
        <time>2016-03-07T22:17:59Z</time>
      </trkpt>
      <trkpt lat="45.42708" lon="0.84817">
        <ele>156</ele>
        <time>2016-03-07T22:19:59Z</time>
      </trkpt>
      <trkpt lat="45.42726" lon="0.84746">
        <ele>154</ele>
        <time>2016-03-07T22:21:59Z</time>
      </trkpt>
      <trkpt lat="45.42734" lon="0.84714">
        <ele>154</ele>
        <time>2016-03-07T22:23:59Z</time>
      </trkpt>
      <trkpt lat="45.42755" lon="0.84697">
        <ele>152</ele>
        <time>2016-03-07T22:25:59Z</time>
      </trkpt>
      <trkpt lat="45.42794" lon="0.84695">
        <ele>152</ele>
        <time>2016-03-07T22:27:59Z</time>
      </trkpt>
      <trkpt lat="45.42832" lon="0.84645">
        <ele>151</ele>
        <time>2016-03-07T22:29:59Z</time>
      </trkpt>
      <trkpt lat="45.42872" lon="0.8463">
        <ele>155</ele>
        <time>2016-03-07T22:31:59Z</time>
      </trkpt>
      <trkpt lat="45.42918" lon="0.84633">
        <ele>159</ele>
        <time>2016-03-07T22:33:59Z</time>
      </trkpt>
      <trkpt lat="45.42975" lon="0.84648">
        <ele>165</ele>
        <time>2016-03-07T22:35:59Z</time>
      </trkpt>
      <trkpt lat="45.43005" lon="0.84557">
        <ele>177</ele>
        <time>2016-03-07T22:37:59Z</time>
      </trkpt>
      <trkpt lat="45.43162" lon="0.8439">
        <ele>200</ele>
        <time>2016-03-07T22:39:59Z</time>
      </trkpt>
      <trkpt lat="45.43192" lon="0.84354">
        <ele>201</ele>
        <time>2016-03-07T22:41:59Z</time>
      </trkpt>
      <trkpt lat="45.43216" lon="0.84296">
        <ele>208</ele>
        <time>2016-03-07T22:43:59Z</time>
      </trkpt>
      <trkpt lat="45.4324" lon="0.84182">
        <ele>224</ele>
        <time>2016-03-07T22:45:59Z</time>
      </trkpt>
      <trkpt lat="45.43255" lon="0.84081">
        <ele>232</ele>
        <time>2016-03-07T22:47:59Z</time>
      </trkpt>
      <trkpt lat="45.43284" lon="0.84027">
        <ele>234</ele>
        <time>2016-03-07T22:49:59Z</time>
      </trkpt>
      <trkpt lat="45.43296" lon="0.83991">
        <ele>235</ele>
        <time>2016-03-07T22:51:59Z</time>
      </trkpt>
      <trkpt lat="45.43418" lon="0.83761">
        <ele>235</ele>
        <time>2016-03-07T22:53:59Z</time>
      </trkpt>
      <trkpt lat="45.43515" lon="0.83652">
        <ele>233</ele>
        <time>2016-03-07T22:55:59Z</time>
      </trkpt>
      <trkpt lat="45.43607" lon="0.83491">
        <ele>229</ele>
        <time>2016-03-07T22:57:59Z</time>
      </trkpt>
      <trkpt lat="45.43669" lon="0.83384">
        <ele>231</ele>
        <time>2016-03-07T22:59:59Z</time>
      </trkpt>
      <trkpt lat="45.43692" lon="0.83349">
        <ele>232</ele>
        <time>2016-03-07T23:01:59Z</time>
      </trkpt>
      <trkpt lat="45.43701" lon="0.83279">
        <ele>231</ele>
        <time>2016-03-07T23:03:59Z</time>
      </trkpt>
      <trkpt lat="45.4377" lon="0.83253">
        <ele>230</ele>
        <time>2016-03-07T23:05:59Z</time>
      </trkpt>
      <trkpt lat="45.4382" lon="0.83238">
        <ele>229</ele>
        <time>2016-03-07T23:07:59Z</time>
      </trkpt>
      <trkpt lat="45.43842" lon="0.83309">
        <ele>229</ele>
        <time>2016-03-07T23:09:59Z</time>
      </trkpt>
      <trkpt lat="45.43839" lon="0.83371">
        <ele>227</ele>
        <time>2016-03-07T23:11:59Z</time>
      </trkpt>
      <trkpt lat="45.43839" lon="0.83412">
        <ele>225</ele>
        <time>2016-03-07T23:13:59Z</time>
      </trkpt>
      <trkpt lat="45.4389" lon="0.83427">
        <ele>221</ele>
        <time>2016-03-07T23:15:59Z</time>
      </trkpt>
      <trkpt lat="45.43913" lon="0.83392">
        <ele>221</ele>
        <time>2016-03-07T23:17:59Z</time>
      </trkpt>
      <trkpt lat="45.43932" lon="0.83319">
        <ele>219</ele>
        <time>2016-03-07T23:19:59Z</time>
      </trkpt>
      <trkpt lat="45.43932" lon="0.83251">
        <ele>217</ele>
        <time>2016-03-07T23:21:59Z</time>
      </trkpt>
      <trkpt lat="45.43926" lon="0.83176">
        <ele>218</ele>
        <time>2016-03-07T23:23:59Z</time>
      </trkpt>
      <trkpt lat="45.43948" lon="0.83113">
        <ele>221</ele>
        <time>2016-03-07T23:25:59Z</time>
      </trkpt>
      <trkpt lat="45.44014" lon="0.82982">
        <ele>222</ele>
        <time>2016-03-07T23:27:59Z</time>
      </trkpt>
      <trkpt lat="45.44044" lon="0.83002">
        <ele>222</ele>
        <time>2016-03-07T23:29:59Z</time>
      </trkpt>
      <trkpt lat="45.44152" lon="0.83004">
        <ele>222</ele>
        <time>2016-03-07T23:31:59Z</time>
      </trkpt>
      <trkpt lat="45.44331" lon="0.82957">
        <ele>223</ele>
        <time>2016-03-07T23:33:59Z</time>
      </trkpt>
      <trkpt lat="45.4447" lon="0.82952">
        <ele>224</ele>
        <time>2016-03-07T23:35:59Z</time>
      </trkpt>
      <trkpt lat="45.44577" lon="0.83019">
        <ele>230</ele>
        <time>2016-03-07T23:37:59Z</time>
      </trkpt>
      <trkpt lat="45.44476" lon="0.83304">
        <ele>226</ele>
        <time>2016-03-07T23:39:59Z</time>
      </trkpt>
      <trkpt lat="45.44389" lon="0.83673">
        <ele>202</ele>
        <time>2016-03-07T23:41:59Z</time>
      </trkpt>
      <trkpt lat="45.44383" lon="0.83749">
        <ele>206</ele>
        <time>2016-03-07T23:43:59Z</time>
      </trkpt>
      <trkpt lat="45.44378" lon="0.8383">
        <ele>216</ele>
        <time>2016-03-07T23:45:59Z</time>
      </trkpt>
      <trkpt lat="45.44336" lon="0.83914">
        <ele>227</ele>
        <time>2016-03-07T23:47:59Z</time>
      </trkpt>
      <trkpt lat="45.44261" lon="0.84077">
        <ele>242</ele>
        <time>2016-03-07T23:49:59Z</time>
      </trkpt>
      <trkpt lat="45.44256" lon="0.84128">
        <ele>245</ele>
        <time>2016-03-07T23:51:59Z</time>
      </trkpt>
      <trkpt lat="45.44354" lon="0.84367">
        <ele>260</ele>
        <time>2016-03-07T23:53:59Z</time>
      </trkpt>
      <trkpt lat="45.44318" lon="0.84437">
        <ele>265</ele>
        <time>2016-03-07T23:55:59Z</time>
      </trkpt>
    </trkseg>
  </trk>
</gpx>